Time;durP1;ratioP1;P1;durP2;ratioP2;P2;SDS_P1;SDS_P2;PMS_P1;PMS_P2;Temp;Humidity;BMP_temperature;BMP_pressure;BME280_temperature;BME280_humidity;BME280_pressure;Samples;Min_cycle;Max_cycle;Signal;HPM_P1;HPM_P2
2022/10/11 00:01:08;;;;;;;14.20;2.10;;;;;;;9.06;96.99;101472.71;105136;1292;72390;-80
2022/10/11 00:03:37;;;;;;;12.20;2.50;;;;;;;9.04;96.69;101476.46;105280;1297;72925;-80
2022/10/11 00:06:13;;;;;;;14.00;2.20;;;;;;;9.01;96.57;101480.15;105271;1298;59992;-80
2022/10/11 00:08:53;;;;;;;13.10;2.20;;;;;;;8.98;96.71;101481.83;105198;1295;59040;-80
2022/10/11 00:11:27;;;;;;;12.60;2.40;;;;;;;8.93;96.68;101482.62;105150;1298;73698;-80
2022/10/11 00:13:53;;;;;;;10.50;1.90;;;;;;;8.90;96.50;101487.13;105132;1293;59175;-80
2022/10/11 00:16:23;;;;;;;12.60;2.10;;;;;;;8.87;96.78;101490.92;105019;1302;72699;-80
2022/10/11 00:18:49;;;;;;;12.50;2.70;;;;;;;8.85;96.63;101493.30;105021;1298;62161;-80
2022/10/11 00:21:20;;;;;;;14.20;2.30;;;;;;;8.82;96.87;101495.61;105183;1299;59032;-80
2022/10/11 00:23:47;;;;;;;16.70;2.30;;;;;;;8.79;97.16;101498.05;105044;1298;73678;-80
2022/10/11 00:26:15;;;;;;;15.30;2.20;;;;;;;8.76;97.14;101503.40;105176;1299;70919;-81
2022/10/11 00:28:51;;;;;;;18.00;2.80;;;;;;;8.74;97.00;101508.70;105241;1297;71717;-80
2022/10/11 00:31:22;;;;;;;14.20;2.50;;;;;;;8.72;96.84;101505.40;105082;1289;60204;-80
2022/10/11 00:33:49;;;;;;;14.20;2.40;;;;;;;8.69;96.78;101507.77;105175;1297;58830;-80
2022/10/11 00:36:21;;;;;;;15.60;2.40;;;;;;;8.67;96.86;101508.67;105311;1297;75131;-81
2022/10/11 00:38:51;;;;;;;18.30;2.30;;;;;;;8.65;96.74;101513.30;105219;1298;70063;-80
2022/10/11 00:41:28;;;;;;;14.80;2.80;;;;;;;8.63;96.72;101514.76;105319;1297;72308;-81
2022/10/11 00:44:21;;;;;;;9.90;2.10;;;;;;;8.59;97.05;101515.60;104945;1300;59122;-80
2022/10/11 00:47:03;;;;;;;13.00;2.80;;;;;;;8.57;96.73;101521.26;104828;1295;59420;-80
2022/10/11 00:50:01;;;;;;;12.30;2.20;;;;;;;8.54;96.98;101523.42;105135;1297;76027;-81
2022/10/11 00:52:31;;;;;;;11.70;2.60;;;;;;;8.51;96.90;101520.74;105192;1298;70040;-81
2022/10/11 00:55:13;;;;;;;13.70;2.70;;;;;;;8.49;96.49;101525.17;105113;1301;72469;-81
2022/10/11 00:57:45;;;;;;;11.00;2.00;;;;;;;8.46;96.26;101525.96;105237;1298;61423;-80
2022/10/11 01:00:13;;;;;;;15.00;2.90;;;;;;;8.44;96.61;101524.23;105184;1297;59761;-80
2022/10/11 01:02:41;;;;;;;11.70;2.10;;;;;;;8.41;96.62;101525.66;105061;1302;74131;-81
2022/10/11 01:05:16;;;;;;;18.30;2.60;;;;;;;8.37;96.88;101522.46;105258;1298;69378;-80
2022/10/11 01:08:01;;;;;;;14.10;2.50;;;;;;;8.36;96.66;101524.36;105265;1295;72078;-80
2022/10/11 01:10:38;;;;;;;11.80;2.50;;;;;;;8.34;96.72;101525.41;105468;1287;59810;-80
2022/10/11 01:13:21;;;;;;;10.80;2.10;;;;;;;8.32;96.81;101523.52;105299;1298;59320;-79
2022/10/11 01:15:57;;;;;;;12.60;2.30;;;;;;;8.29;96.63;101521.51;105400;1293;75304;-81
2022/10/11 01:18:56;;;;;;;11.70;2.50;;;;;;;8.26;96.65;101525.11;105267;1297;70404;-80
2022/10/11 01:21:50;;;;;;;16.50;2.40;;;;;;;8.23;96.89;101524.37;105428;1295;73433;-81
2022/10/11 01:24:32;;;;;;;12.00;2.20;;;;;;;8.21;96.52;101527.36;105325;1298;60604;-80
2022/10/11 01:27:19;;;;;;;15.80;2.60;;;;;;;8.17;96.50;101529.04;105427;1293;59270;-81
2022/10/11 01:29:55;;;;;;;11.90;2.20;;;;;;;8.14;96.43;101530.38;105365;1294;73715;-80
2022/10/11 01:32:31;;;;;;;10.00;2.30;;;;;;;8.12;96.53;101532.85;105455;1297;70877;-80
2022/10/11 01:35:07;;;;;;;14.40;2.20;;;;;;;8.09;96.68;101532.56;105437;1289;72571;-81
2022/10/11 01:37:40;;;;;;;14.50;3.00;;;;;;;8.07;96.97;101535.25;105345;1296;61200;-81
2022/10/11 01:40:30;;;;;;;18.90;2.30;;;;;;;8.05;96.80;101539.32;105438;1290;59701;-81
2022/10/11 01:43:05;;;;;;;15.30;2.60;;;;;;;8.04;96.96;101540.85;105429;1295;74821;-81
2022/10/11 01:45:36;;;;;;;15.80;2.50;;;;;;;8.01;96.87;101543.52;105504;1297;70258;-82
2022/10/11 01:48:15;;;;;;;14.20;2.50;;;;;;;8.00;96.95;101542.99;105456;1289;71484;-81
2022/10/11 01:50:47;;;;;;;16.00;2.20;;;;;;;7.98;97.20;101550.89;105399;1296;60508;-81
2022/10/11 01:53:50;;;;;;;16.10;2.40;;;;;;;7.96;97.21;101548.94;105240;1298;59793;-81
2022/10/11 01:56:44;;;;;;;12.60;2.30;;;;;;;7.95;97.03;101553.44;105417;1295;73594;-80
2022/10/11 01:59:34;;;;;;;12.70;2.00;;;;;;;7.93;96.74;101553.08;105423;1290;69592;-81
2022/10/11 02:02:18;;;;;;;15.30;2.20;;;;;;;7.90;96.71;101556.48;105410;1293;71187;-81
2022/10/11 02:04:56;;;;;;;13.20;2.40;;;;;;;7.89;97.14;101559.23;105269;1296;60238;-81
2022/10/11 02:07:34;;;;;;;14.40;2.10;;;;;;;7.88;97.17;101557.77;105453;1294;59680;-81
2022/10/11 02:10:14;;;;;;;13.40;2.10;;;;;;;7.87;96.92;101559.23;105351;1295;75594;-81
2022/10/11 02:12:54;;;;;;;12.00;2.00;;;;;;;7.86;96.82;101561.13;105383;1296;70539;-81
2022/10/11 02:15:34;;;;;;;11.90;2.30;;;;;;;7.84;96.86;101558.80;105286;1304;72845;-81
2022/10/11 02:18:14;;;;;;;11.30;2.40;;;;;;;7.82;96.72;101559.38;105476;1293;59979;-81
2022/10/11 02:20:52;;;;;;;17.10;3.00;;;;;;;7.80;96.47;101562.15;105496;1293;61128;-81
2022/10/11 02:23:30;;;;;;;14.70;2.50;;;;;;;7.79;96.06;101560.35;105451;1295;75018;-80
2022/10/11 02:26:10;;;;;;;12.40;2.30;;;;;;;7.76;96.50;101565.98;105358;1302;69940;-81
2022/10/11 02:28:42;;;;;;;13.40;2.20;;;;;;;7.73;96.50;101572.30;105362;1293;72278;-80
2022/10/11 02:31:11;;;;;;;11.00;2.00;;;;;;;7.70;96.52;101572.39;105288;1298;61363;-81
2022/10/11 02:33:52;;;;;;;11.90;2.10;;;;;;;7.66;96.45;101574.95;105256;1291;60055;-81
2022/10/11 02:36:45;;;;;;;13.00;2.20;;;;;;;7.64;96.69;101581.73;105271;1297;75285;-81
2022/10/11 02:39:30;;;;;;;12.80;2.30;;;;;;;7.61;96.56;101580.70;105262;1297;71158;-82
2022/10/11 02:42:12;;;;;;;12.30;2.20;;;;;;;7.59;96.52;101579.45;105165;1297;73191;-82
2022/10/11 02:44:59;;;;;;;14.00;2.30;;;;;;;7.57;96.46;101580.53;105367;1287;60947;-81
2022/10/11 02:47:49;;;;;;;14.10;2.30;;;;;;;7.54;96.48;101581.83;105379;1295;59397;-81
2022/10/11 02:50:59;;;;;;;15.00;3.10;;;;;;;7.52;96.62;101579.06;105317;1294;73333;-81
2022/10/11 02:53:32;;;;;;;10.00;2.20;;;;;;;7.49;96.44;101582.14;104764;1304;72615;-81
2022/10/11 02:56:09;;;;;;;13.70;2.60;;;;;;;7.46;96.57;101581.70;104704;1305;72826;-81
2022/10/11 02:58:45;;;;;;;12.40;2.40;;;;;;;7.43;96.61;101585.41;104748;1304;59592;-81
2022/10/11 03:01:25;;;;;;;13.70;2.50;;;;;;;7.41;96.81;101581.05;104659;1303;60178;-81
2022/10/11 03:03:55;;;;;;;17.10;2.70;;;;;;;7.40;96.61;101582.24;104621;1302;73003;-81
2022/10/11 03:06:23;;;;;;;14.40;2.30;;;;;;;7.37;96.66;101585.59;104672;1295;71504;-81
2022/10/11 03:08:55;;;;;;;12.60;2.20;;;;;;;7.34;96.35;101581.10;104653;1304;59419;-81
2022/10/11 03:11:25;;;;;;;11.70;2.20;;;;;;;7.31;96.46;101585.95;104647;1304;61390;-81
2022/10/11 03:13:52;;;;;;;12.20;2.70;;;;;;;7.29;96.40;101588.21;104653;1302;59163;-81
2022/10/11 03:16:19;;;;;;;13.10;2.10;;;;;;;7.26;96.64;101589.35;104713;1303;73111;-81
2022/10/11 03:18:46;;;;;;;10.10;2.30;;;;;;;7.23;96.30;101597.88;104661;1303;69606;-81
2022/10/11 03:21:13;;;;;;;11.00;2.10;;;;;;;7.20;96.82;101600.55;104596;1302;72688;-81
2022/10/11 03:23:43;;;;;;;10.60;2.20;;;;;;;7.19;96.55;101603.71;105005;1302;61089;-81
2022/10/11 03:26:17;;;;;;;16.20;2.50;;;;;;;7.16;96.60;101606.20;105369;1298;59499;-82
2022/10/11 03:28:54;;;;;;;11.00;2.50;;;;;;;7.14;96.72;101610.07;105157;1299;75020;-81
2022/10/11 03:31:29;;;;;;;12.80;2.40;;;;;;;7.13;96.52;101615.45;105326;1276;71772;-81
2022/10/11 03:33:55;;;;;;;14.70;2.50;;;;;;;7.11;96.21;101619.14;105200;1301;60063;-82
2022/10/11 03:36:22;;;;;;;12.60;2.40;;;;;;;7.08;96.70;101619.88;105380;1296;59019;-81
2022/10/11 03:38:48;;;;;;;12.80;2.70;;;;;;;7.06;96.84;101620.61;105336;1297;58929;-81
2022/10/11 03:41:15;;;;;;;13.60;2.20;;;;;;;7.05;96.77;101623.02;105424;1298;59880;-81
2022/10/11 03:43:45;;;;;;;18.00;2.80;;;;;;;7.04;97.01;101620.65;105418;1297;71456;-81
2022/10/11 03:46:14;;;;;;;20.70;2.50;;;;;;;7.03;97.56;101624.95;105061;1288;419294;-81
2022/10/11 03:48:41;;;;;;;15.40;2.50;;;;;;;7.02;97.34;101628.33;105359;1295;64110;-81
2022/10/11 03:51:07;;;;;;;14.90;2.60;;;;;;;7.02;97.46;101629.95;105274;1300;59255;-81
2022/10/11 03:53:45;;;;;;;14.60;2.60;;;;;;;7.01;97.19;101634.02;105454;1295;74556;-81
2022/10/11 03:56:12;;;;;;;13.70;2.40;;;;;;;7.01;97.06;101636.49;105448;1300;70835;-81
2022/10/11 03:58:46;;;;;;;14.20;2.50;;;;;;;6.99;97.05;101638.09;105352;1297;70675;-81
2022/10/11 04:01:22;;;;;;;18.70;2.90;;;;;;;6.98;97.13;101639.97;105395;1289;61317;-80
2022/10/11 04:03:59;;;;;;;15.50;2.60;;;;;;;6.95;97.18;101643.48;105460;1293;60391;-80
2022/10/11 04:06:26;;;;;;;12.60;2.70;;;;;;;6.93;97.20;101643.48;105327;1297;59445;-81
2022/10/11 04:08:52;;;;;;;16.30;3.10;;;;;;;6.91;97.05;101649.48;105213;1300;59644;-81
2022/10/11 04:11:19;;;;;;;13.60;3.30;;;;;;;6.88;97.47;101652.12;105281;1297;59462;-81
2022/10/11 04:13:45;;;;;;;12.60;3.30;;;;;;;6.86;97.49;101654.60;105387;1293;59720;-81
2022/10/11 04:16:19;;;;;;;18.30;2.80;;;;;;;6.85;97.43;101655.26;105414;1280;62019;-81
2022/10/11 04:18:46;;;;;;;16.40;3.10;;;;;;;6.83;97.34;101662.44;105413;1295;58781;-81
2022/10/11 04:21:19;;;;;;;12.30;3.00;;;;;;;6.81;97.28;101666.85;105343;1297;71147;-81
2022/10/11 04:23:46;;;;;;;18.20;3.70;;;;;;;6.78;97.15;101666.70;105397;1289;59099;-81
2022/10/11 04:26:22;;;;;;;19.60;3.80;;;;;;;6.75;97.18;101672.27;105303;1297;61436;-81
2022/10/11 04:28:50;;;;;;;11.50;3.30;;;;;;;6.71;96.82;101676.58;105279;1297;59299;-80
2022/10/11 04:31:18;;;;;;;16.00;4.30;;;;;;;6.68;96.91;101680.16;105361;1297;75246;-80
2022/10/11 04:33:56;;;;;;;15.90;3.80;;;;;;;6.65;97.15;101681.67;105302;1297;70895;-81
2022/10/11 04:36:23;;;;;;;15.70;3.70;;;;;;;6.62;97.10;101680.34;105364;1290;71085;-80
2022/10/11 04:38:57;;;;;;;15.20;3.50;;;;;;;6.59;96.92;101685.14;105170;1291;60202;-81
2022/10/11 04:41:24;;;;;;;19.30;4.20;;;;;;;6.57;97.37;101683.57;105279;1296;60261;-81
2022/10/11 04:43:58;;;;;;;12.70;4.10;;;;;;;6.55;97.29;101684.06;105197;1297;75796;-81
2022/10/11 04:46:24;;;;;;;17.80;4.20;;;;;;;6.54;97.40;101687.13;105073;1299;69256;-81
2022/10/11 04:48:51;;;;;;;18.00;5.20;;;;;;;6.53;97.73;101690.38;105212;1298;72316;-81
2022/10/11 04:51:20;;;;;;;18.30;4.70;;;;;;;6.52;97.90;101690.20;105372;1296;59415;-81
2022/10/11 04:53:48;;;;;;;19.90;4.80;;;;;;;6.53;97.95;101694.42;105144;1288;60892;-81
2022/10/11 04:56:17;;;;;;;20.20;4.90;;;;;;;6.51;97.82;101700.31;105368;1304;73301;-80
2022/10/11 04:58:47;;;;;;;13.30;4.40;;;;;;;6.51;97.83;101699.61;105293;1290;71921;-81
2022/10/11 05:01:16;;;;;;;12.10;4.90;;;;;;;6.51;97.56;101708.28;105253;1298;72751;-81
2022/10/11 05:03:47;;;;;;;18.70;5.10;;;;;;;6.50;97.52;101710.99;105358;1297;59079;-81
2022/10/11 05:06:20;;;;;;;16.50;4.80;;;;;;;6.49;97.86;101714.75;105413;1304;59772;-82
2022/10/11 05:08:54;;;;;;;20.40;5.70;;;;;;;6.47;97.66;101717.36;105417;1297;73539;-81
2022/10/11 05:11:28;;;;;;;18.30;4.90;;;;;;;6.44;97.54;101718.98;105222;1297;71055;-81
2022/10/11 05:13:55;;;;;;;19.80;5.60;;;;;;;6.42;97.58;101724.11;105233;1297;72626;-82
2022/10/11 05:16:22;;;;;;;16.60;5.50;;;;;;;6.40;97.87;101724.06;105246;1293;61218;-82
2022/10/11 05:18:51;;;;;;;17.60;5.50;;;;;;;6.39;97.82;101723.11;105183;1299;60189;-81
2022/10/11 05:21:24;;;;;;;20.10;5.80;;;;;;;6.39;97.96;101725.39;105281;1296;59966;-81
2022/10/11 05:23:55;;;;;;;16.60;5.90;;;;;;;6.38;97.74;101727.27;105292;1296;70018;-81
2022/10/11 05:26:26;;;;;;;18.70;6.00;;;;;;;6.38;97.91;101730.61;105179;1295;73646;-82
2022/10/11 05:28:57;;;;;;;18.10;5.40;;;;;;;6.37;97.82;101729.94;105279;1298;59820;-82
2022/10/11 05:31:25;;;;;;;18.20;5.70;;;;;;;6.37;98.00;101733.83;105382;1298;59733;-80
2022/10/11 05:34:01;;;;;;;17.40;5.60;;;;;;;6.37;98.12;101735.56;105341;1296;74790;-75
2022/10/11 05:36:39;;;;;;;21.10;6.30;;;;;;;6.40;98.28;101739.34;105297;1296;70572;-75
2022/10/11 05:39:15;;;;;;;23.00;5.40;;;;;;;6.43;98.46;101743.20;105400;1295;71422;-75
2022/10/11 05:41:44;;;;;;;20.90;5.50;;;;;;;6.45;98.32;101746.85;105258;1295;60129;-75
2022/10/11 05:44:11;;;;;;;17.80;5.50;;;;;;;6.48;98.50;101747.31;105117;1296;60380;-75
2022/10/11 05:46:39;;;;;;;21.00;5.80;;;;;;;6.50;98.49;101750.67;105233;1296;75719;-75
2022/10/11 05:49:06;;;;;;;17.40;5.00;;;;;;;6.52;98.46;101756.48;105131;1292;70909;-75
2022/10/11 05:51:35;;;;;;;18.90;5.50;;;;;;;6.53;98.52;101757.63;105342;1297;71263;-75
2022/10/11 05:54:13;;;;;;;17.40;5.60;;;;;;;6.56;98.80;101760.98;105260;1302;61931;-75
2022/10/11 05:56:45;;;;;;;18.60;5.40;;;;;;;6.58;98.94;101760.78;105376;1297;58437;-75
2022/10/11 06:01:47;;;;;;;22.50;5.80;;;;;;;6.67;99.48;101764.85;104908;1291;70039;-75
2022/10/11 06:04:17;;;;;;;18.30;5.90;;;;;;;6.70;99.45;101769.35;104825;1301;71889;-75
2022/10/11 06:06:44;;;;;;;21.00;5.80;;;;;;;6.73;99.69;101771.33;104852;1299;61119;-75
2022/10/11 06:09:11;;;;;;;22.90;5.60;;;;;;;6.78;99.35;101769.26;104984;1297;59004;-75
2022/10/11 06:11:40;;;;;;;21.20;7.00;;;;;;;6.83;99.41;101773.20;104988;1299;74341;-75
2022/10/11 06:14:10;;;;;;;20.30;6.30;;;;;;;6.89;99.18;101777.48;104913;1302;71203;-75
2022/10/11 06:16:37;;;;;;;16.00;6.00;;;;;;;6.95;99.34;101784.20;104927;1302;70951;-75
2022/10/11 06:19:04;;;;;;;21.70;6.10;;;;;;;7.01;99.10;101784.77;105119;1298;59691;-75
2022/10/11 06:21:31;;;;;;;17.80;5.60;;;;;;;7.07;99.04;101783.55;104982;1302;58967;-75
2022/10/11 06:24:00;;;;;;;17.40;5.50;;;;;;;7.14;99.16;101791.30;105025;1291;75056;-76
2022/10/11 06:26:27;;;;;;;20.40;5.30;;;;;;;7.20;99.11;101791.98;105173;1291;71134;-75
2022/10/11 06:28:54;;;;;;;17.50;5.30;;;;;;;7.27;99.07;101792.31;105060;1300;71306;-75
2022/10/11 06:31:21;;;;;;;16.20;5.30;;;;;;;7.36;99.21;101800.75;105121;1293;59873;-75
2022/10/11 06:33:57;;;;;;;16.10;5.00;;;;;;;7.43;99.00;101798.20;105214;1304;59550;-75
2022/10/11 06:36:30;;;;;;;16.00;4.80;;;;;;;7.52;98.74;101802.92;105159;1297;75710;-75
2022/10/11 06:41:29;;;;;;;17.10;5.40;;;;;;;7.69;98.90;101806.98;105447;1282;58971;-74
2022/10/11 06:43:55;;;;;;;16.90;4.90;;;;;;;7.78;98.55;101808.00;105445;1302;59230;-75
2022/10/11 06:46:24;;;;;;;12.30;4.50;;;;;;;7.85;98.11;101808.30;105449;1294;59039;-75
2022/10/11 06:48:51;;;;;;;16.90;4.30;;;;;;;7.92;98.13;101808.70;105340;1302;73772;-75
2022/10/11 06:51:21;;;;;;;16.30;4.80;;;;;;;8.02;98.13;101813.54;105253;1298;69821;-75
2022/10/11 06:53:55;;;;;;;14.10;4.60;;;;;;;8.11;97.95;101815.17;105213;1294;71816;-75
2022/10/11 06:56:24;;;;;;;16.30;5.10;;;;;;;8.23;98.10;101816.49;105173;1298;63956;-75
2022/10/11 06:58:55;;;;;;;15.80;4.60;;;;;;;8.33;97.64;101817.01;105254;1296;59040;-75
2022/10/11 07:01:25;;;;;;;13.80;4.20;;;;;;;8.41;96.93;101823.05;105461;1277;73300;-75
2022/10/11 07:03:53;;;;;;;11.50;4.40;;;;;;;8.47;96.46;101825.69;105402;1290;71187;-75
2022/10/11 07:06:27;;;;;;;12.90;4.50;;;;;;;8.54;96.18;101830.90;105337;1297;72578;-75
2022/10/11 07:08:54;;;;;;;13.60;4.80;;;;;;;8.62;96.04;101831.54;105308;1295;59867;-75
2022/10/11 07:11:28;;;;;;;10.10;4.40;;;;;;;8.68;95.78;101836.05;105332;1290;59125;-75
2022/10/11 07:14:03;;;;;;;13.40;4.60;;;;;;;8.77;95.69;101839.30;105338;1297;73059;-75
2022/10/11 07:16:30;;;;;;;12.10;4.30;;;;;;;8.86;95.25;101837.63;105244;1295;68613;-76
2022/10/11 07:19:08;;;;;;;14.00;4.20;;;;;;;8.98;95.20;101841.39;105341;1298;72687;-75
2022/10/11 07:21:45;;;;;;;13.80;4.00;;;;;;;9.11;95.19;101839.02;105342;1297;61987;-75
2022/10/11 07:24:20;;;;;;;15.00;4.20;;;;;;;9.21;94.34;101846.40;105345;1299;59192;-75
2022/10/11 07:26:54;;;;;;;9.40;3.20;;;;;;;9.31;94.13;101845.64;105246;1296;75839;-75
2022/10/11 07:29:20;;;;;;;10.90;3.20;;;;;;;9.40;93.43;101848.02;105269;1290;59078;-76
2022/10/11 07:31:47;;;;;;;9.90;3.60;;;;;;;9.49;92.74;101850.91;105297;1282;58973;-76
2022/10/11 07:34:14;;;;;;;9.40;3.00;;;;;;;9.60;92.30;101848.88;105166;1291;59292;-76
2022/10/11 07:36:41;;;;;;;12.10;3.80;;;;;;;9.69;91.49;101852.27;105201;1299;59249;-76
2022/10/11 07:39:10;;;;;;;9.00;2.90;;;;;;;9.78;90.56;101856.20;105184;1300;59399;-75
2022/10/11 07:41:39;;;;;;;9.80;3.00;;;;;;;9.88;89.89;101856.23;105136;1298;70315;-75
2022/10/11 07:44:11;;;;;;;11.70;3.60;;;;;;;9.97;89.81;101854.83;105243;1297;72412;-75
2022/10/11 07:46:38;;;;;;;10.50;2.90;;;;;;;10.09;89.52;101861.45;105227;1297;60439;-75
2022/10/11 07:49:12;;;;;;;15.20;3.50;;;;;;;10.18;88.32;101862.05;105332;1296;59868;-75
2022/10/11 07:51:43;;;;;;;12.40;3.10;;;;;;;10.29;88.45;101859.15;105220;1291;73727;-75
2022/10/11 07:54:13;;;;;;;12.40;2.50;;;;;;;10.42;88.25;101855.80;105271;1307;70020;-75
2022/10/11 07:56:43;;;;;;;10.20;2.70;;;;;;;10.54;87.63;101863.83;105246;1297;73618;-76
2022/10/11 07:59:16;;;;;;;11.80;3.10;;;;;;;10.69;87.73;101864.73;105197;1299;61954;-76
2022/10/11 08:01:43;;;;;;;11.60;2.80;;;;;;;10.80;86.71;101866.98;105111;1297;59352;-76
2022/10/11 08:04:12;;;;;;;12.30;2.80;;;;;;;10.92;86.10;101868.34;105286;1299;59796;-76
2022/10/11 08:06:39;;;;;;;10.00;3.00;;;;;;;11.06;85.87;101869.45;105280;1292;69850;-76
2022/10/11 08:09:06;;;;;;;10.80;2.60;;;;;;;11.21;85.38;101871.05;105280;1289;58975;-76
2022/10/11 08:11:36;;;;;;;12.80;2.90;;;;;;;11.32;84.22;101872.56;105289;1297;60771;-76
2022/10/11 08:14:07;;;;;;;9.70;2.20;;;;;;;11.39;83.14;101871.16;105207;1298;60172;-76
2022/10/11 08:16:48;;;;;;;11.00;2.40;;;;;;;11.53;83.15;101873.69;104993;1296;73177;-75
2022/10/11 08:19:17;;;;;;;10.40;2.30;;;;;;;11.64;81.55;101879.66;105240;1299;70494;-76
2022/10/11 08:21:55;;;;;;;13.20;2.50;;;;;;;11.70;80.33;101876.30;105272;1299;72802;-76
2022/10/11 08:24:30;;;;;;;9.70;2.20;;;;;;;11.78;79.79;101873.83;105233;1297;61085;-76
2022/10/11 08:27:03;;;;;;;12.30;2.10;;;;;;;11.90;79.70;101870.72;105240;1298;59211;-76
2022/10/11 08:29:29;;;;;;;9.20;2.10;;;;;;;11.97;78.81;101878.59;105179;1298;59546;-76
2022/10/11 08:31:57;;;;;;;10.00;2.30;;;;;;;12.07;78.74;101880.40;105231;1298;70880;-76
2022/10/11 08:34:30;;;;;;;11.00;2.30;;;;;;;12.19;78.38;101877.08;105172;1299;72795;-76
2022/10/11 08:36:57;;;;;;;11.90;2.10;;;;;;;12.30;78.02;101877.89;105272;1295;59208;-75
2022/10/11 08:39:26;;;;;;;11.00;2.10;;;;;;;12.39;77.40;101878.00;105197;1301;58917;-75
2022/10/11 08:41:59;;;;;;;9.70;2.50;;;;;;;12.50;77.01;101880.95;105215;1296;72890;-76
2022/10/11 08:44:31;;;;;;;9.00;2.30;;;;;;;12.62;76.58;101885.09;105268;1297;70879;-77
2022/10/11 08:47:27;;;;;;;10.80;2.20;;;;;;;12.74;76.12;101884.86;105368;1289;70765;-77
2022/10/11 08:50:12;;;;;;;12.90;2.00;;;;;;;12.92;76.11;101888.20;105086;1292;62755;-76
2022/10/11 08:53:01;;;;;;;12.80;2.00;;;;;;;13.02;74.41;101888.89;105288;1298;58812;-77
2022/10/11 08:55:44;;;;;;;10.90;2.10;;;;;;;13.13;74.27;101889.84;105304;1298;72716;-76
2022/10/11 08:58:38;;;;;;;11.40;2.10;;;;;;;13.22;73.29;101892.94;105284;1295;69937;-76
2022/10/11 09:01:36;;;;;;;8.00;1.80;;;;;;;13.29;72.53;101889.92;105287;1296;71347;-76
2022/10/11 09:06:59;;;;;;;8.80;2.20;;;;;;;13.44;71.55;101889.81;105407;1282;58997;-77
2022/10/11 09:09:51;;;;;;;10.80;2.30;;;;;;;13.47;70.82;101888.95;105345;1297;75764;-77
2022/10/11 09:12:44;;;;;;;13.20;2.10;;;;;;;13.59;72.01;101891.80;105367;1299;71319;-77
2022/10/11 09:15:17;;;;;;;7.60;1.70;;;;;;;13.66;70.56;101889.93;105327;1300;71024;-77
2022/10/11 09:18:08;;;;;;;9.70;2.00;;;;;;;13.72;70.02;101894.47;105222;1299;60276;-76
2022/10/11 09:20:50;;;;;;;10.10;1.90;;;;;;;13.82;70.32;101893.80;105353;1297;60309;-76
2022/10/11 09:23:54;;;;;;;8.40;1.80;;;;;;;13.89;68.81;101893.44;105362;1299;74601;-76
2022/10/11 09:26:30;;;;;;;11.40;2.00;;;;;;;13.92;68.34;101899.08;105400;1297;71086;-76
2022/10/11 09:31:28;;;;;;;7.70;2.00;;;;;;;14.02;68.35;101900.20;105205;1291;63215;-76
2022/10/11 09:33:55;;;;;;;11.30;2.00;;;;;;;14.06;67.98;101898.56;105134;1294;59133;-76
2022/10/11 09:36:36;;;;;;;10.60;1.70;;;;;;;14.11;67.72;101903.16;105092;1292;72143;-76
2022/10/11 09:39:49;;;;;;;12.10;1.90;;;;;;;14.17;67.37;101900.21;104996;1300;69723;-77
2022/10/11 09:42:16;;;;;;;11.30;2.00;;;;;;;14.25;67.17;101897.67;105167;1283;70222;-76
2022/10/11 09:44:50;;;;;;;12.00;1.80;;;;;;;14.33;66.46;101898.83;105346;1269;62148;-75
2022/10/11 09:47:26;;;;;;;10.00;2.00;;;;;;;14.46;67.73;101893.61;105308;1297;59334;-76
2022/10/11 09:50:05;;;;;;;7.60;1.50;;;;;;;14.50;67.84;101900.11;105147;1297;73613;-75
2022/10/11 09:52:32;;;;;;;9.10;1.70;;;;;;;14.41;66.11;101902.18;105539;1296;70960;-76
2022/10/11 09:55:01;;;;;;;9.50;1.80;;;;;;;14.44;64.62;101904.90;105366;1291;72580;-76
2022/10/11 09:57:39;;;;;;;9.70;1.80;;;;;;;14.40;64.72;101901.79;105371;1290;60543;-76
2022/10/11 10:00:24;;;;;;;8.50;1.50;;;;;;;14.41;65.10;101898.73;105431;1297;60120;-77
2022/10/11 10:02:56;;;;;;;10.20;2.00;;;;;;;14.51;65.39;101898.89;105442;1275;75683;-75
2022/10/11 10:05:26;;;;;;;8.50;1.70;;;;;;;14.62;65.20;101902.31;105287;1292;69572;-75
2022/10/11 10:08:07;;;;;;;9.10;2.20;;;;;;;14.58;64.08;101904.23;105275;1289;71252;-75
2022/10/11 10:10:34;;;;;;;8.90;1.50;;;;;;;14.66;63.77;101901.91;105366;1298;61020;-76
2022/10/11 10:13:03;;;;;;;9.80;2.00;;;;;;;14.76;64.02;101902.93;105403;1297;59191;-76
2022/10/11 10:15:35;;;;;;;7.00;2.00;;;;;;;14.79;63.44;101907.27;105243;1297;74575;-76
2022/10/11 10:18:05;;;;;;;8.40;1.70;;;;;;;14.83;62.54;101908.02;105210;1299;69161;-76
2022/10/11 10:20:35;;;;;;;8.70;1.50;;;;;;;14.92;61.68;101907.75;105371;1289;72569;-76
2022/10/11 10:23:09;;;;;;;10.20;2.00;;;;;;;15.11;62.16;101908.38;105329;1297;60410;-76
2022/10/11 10:28:22;;;;;;;9.00;1.70;;;;;;;15.41;60.24;101913.36;105029;1293;75039;-76
2022/10/11 10:30:55;;;;;;;9.80;1.90;;;;;;;15.48;59.77;101911.40;105014;1301;69202;-76
2022/10/11 10:33:24;;;;;;;8.30;1.60;;;;;;;15.45;58.47;101912.45;104889;1302;71949;-76
2022/10/11 10:36:06;;;;;;;8.20;2.00;;;;;;;15.48;58.08;101908.97;105079;1296;59757;-76
2022/10/11 10:38:48;;;;;;;7.50;1.60;;;;;;;15.64;58.26;101908.06;105050;1295;60305;-76
2022/10/11 10:41:21;;;;;;;6.40;1.70;;;;;;;15.80;57.28;101909.19;104987;1308;74563;-76
2022/10/11 10:43:57;;;;;;;6.90;1.70;;;;;;;15.86;56.89;101905.27;105025;1296;71417;-76
2022/10/11 10:46:45;;;;;;;9.50;1.90;;;;;;;15.97;56.12;101908.69;104927;1301;71732;-76
2022/10/11 10:49:51;;;;;;;7.80;1.60;;;;;;;16.04;55.06;101907.28;105085;1302;59330;-76
2022/10/11 10:52:46;;;;;;;4.90;1.40;;;;;;;16.05;52.89;101911.05;104979;1301;60195;-76
2022/10/11 10:55:33;;;;;;;11.70;2.00;;;;;;;16.05;54.19;101910.21;105068;1302;73907;-76
2022/10/11 10:58:25;;;;;;;8.20;1.70;;;;;;;16.03;53.89;101911.91;105053;1299;70622;-76
2022/10/11 11:01:01;;;;;;;10.90;2.20;;;;;;;16.11;54.17;101914.15;105048;1294;71506;-76
2022/10/11 11:03:46;;;;;;;7.10;1.60;;;;;;;16.20;53.64;101906.26;105063;1294;59195;-75
2022/10/11 11:07:01;;;;;;;7.40;1.80;;;;;;;16.29;53.81;101903.09;104939;1299;59241;-75
2022/10/11 11:09:36;;;;;;;6.20;1.70;;;;;;;16.47;53.26;101907.13;104585;1304;74855;-75
2022/10/11 11:12:25;;;;;;;6.70;1.70;;;;;;;16.55;51.90;101903.38;105144;1296;70813;-75
2022/10/11 11:15:03;;;;;;;8.50;1.80;;;;;;;16.49;51.45;101905.20;105152;1294;71948;-76
2022/10/11 12:09:37;;;;;;;5.60;1.70;;;;;;;18.93;44.81;101901.96;102478;1328;612277;-73
2022/10/11 12:12:06;;;;;;;8.70;1.70;;;;;;;19.76;41.80;101899.30;103408;1306;205146;-72
2022/10/11 12:14:32;;;;;;;6.70;1.70;;;;;;;20.30;41.84;101895.95;104211;1309;60360;-73
2022/10/11 12:17:11;;;;;;;7.20;1.70;;;;;;;20.67;39.44;101894.02;104177;1310;58882;-73
2022/10/11 12:19:41;;;;;;;7.00;2.00;;;;;;;20.77;39.36;101891.74;103918;1304;70304;-73
2022/10/11 12:22:26;;;;;;;6.40;1.40;;;;;;;20.89;39.59;101891.80;104284;1304;72169;-73
2022/10/11 12:25:00;;;;;;;6.40;1.70;;;;;;;21.05;38.30;101889.58;103403;1304;60431;-73
2022/10/11 12:27:39;;;;;;;5.20;1.30;;;;;;;21.41;37.25;101892.82;102764;1301;59447;-73
2022/10/11 12:30:47;;;;;;;8.60;1.80;;;;;;;21.87;36.04;101891.77;102185;1309;72686;-73
2022/10/11 12:33:24;;;;;;;7.90;1.60;;;;;;;22.50;35.64;101883.77;102670;1291;69900;-73
2022/10/11 12:35:53;;;;;;;6.80;1.90;;;;;;;23.33;34.98;101885.73;102921;1311;70925;-74
2022/10/11 12:38:32;;;;;;;6.70;1.60;;;;;;;23.70;33.90;101887.31;102874;1311;59622;-74
2022/10/11 12:41:17;;;;;;;6.60;1.50;;;;;;;24.03;33.03;101886.32;103055;1305;60211;-73
2022/10/11 12:43:49;;;;;;;4.70;1.60;;;;;;;24.19;32.30;101883.27;101223;1311;70797;-73
2022/10/11 12:51:21;;;;;;;7.40;1.70;;;;;;;25.02;30.32;101878.95;102900;1289;194850;-75
2022/10/11 12:54:11;;;;;;;7.10;1.80;;;;;;;25.17;30.13;101878.04;101971;1309;59825;-73
2022/10/11 12:57:22;;;;;;;5.40;1.50;;;;;;;25.46;29.32;101880.30;102316;1304;73258;-74
2022/10/11 12:59:48;;;;;;;6.10;1.80;;;;;;;25.66;30.16;101874.05;104069;1307;70612;-74
2022/10/11 13:02:33;;;;;;;7.80;1.60;;;;;;;25.57;29.81;101876.85;101551;1304;71914;-75